sensor_id;sensor_type;location;lat;lon;timestamp;pressure;altitude;pressure_sealevel;temperature
43802;BMP280;29429;51.074;13.764;2024-01-06T00:00:17;98802.19;;;4.46
43802;BMP280;29429;51.074;13.764;2024-01-06T00:02:44;98810.31;;;4.45
43802;BMP280;29429;51.074;13.764;2024-01-06T00:05:11;98814.75;;;4.44
43802;BMP280;29429;51.074;13.764;2024-01-06T00:07:38;98818.75;;;4.40
43802;BMP280;29429;51.074;13.764;2024-01-06T00:10:06;98815.50;;;4.38
43802;BMP280;29429;51.074;13.764;2024-01-06T00:12:33;98807.97;;;4.35
43802;BMP280;29429;51.074;13.764;2024-01-06T00:15:00;98819.47;;;4.27
43802;BMP280;29429;51.074;13.764;2024-01-06T00:17:27;98817.75;;;4.20
43802;BMP280;29429;51.074;13.764;2024-01-06T00:19:54;98825.03;;;4.18
43802;BMP280;29429;51.074;13.764;2024-01-06T00:22:21;98824.59;;;4.14
43802;BMP280;29429;51.074;13.764;2024-01-06T00:24:48;98822.06;;;4.06
43802;BMP280;29429;51.074;13.764;2024-01-06T00:27:15;98819.81;;;4.03
43802;BMP280;29429;51.074;13.764;2024-01-06T00:29:43;98824.00;;;3.98
43802;BMP280;29429;51.074;13.764;2024-01-06T00:32:10;98836.91;;;3.93
43802;BMP280;29429;51.074;13.764;2024-01-06T00:34:37;98830.03;;;3.92
43802;BMP280;29429;51.074;13.764;2024-01-06T00:37:04;98834.28;;;3.93
43802;BMP280;29429;51.074;13.764;2024-01-06T00:39:31;98841.31;;;3.86
43802;BMP280;29429;51.074;13.764;2024-01-06T00:41:58;98845.28;;;3.82
43802;BMP280;29429;51.074;13.764;2024-01-06T00:44:25;98850.94;;;3.79
43802;BMP280;29429;51.074;13.764;2024-01-06T00:46:52;98849.69;;;3.75
43802;BMP280;29429;51.074;13.764;2024-01-06T00:49:18;98843.16;;;3.71
43802;BMP280;29429;51.074;13.764;2024-01-06T00:51:46;98848.78;;;3.67
43802;BMP280;29429;51.074;13.764;2024-01-06T00:54:13;98854.41;;;3.64
43802;BMP280;29429;51.074;13.764;2024-01-06T00:56:40;98855.97;;;3.59
43802;BMP280;29429;51.074;13.764;2024-01-06T00:59:09;98854.69;;;3.55
43802;BMP280;29429;51.074;13.764;2024-01-06T01:01:36;98861.13;;;3.52
43802;BMP280;29429;51.074;13.764;2024-01-06T01:04:03;98862.88;;;3.45
43802;BMP280;29429;51.074;13.764;2024-01-06T01:06:30;98858.59;;;3.44
43802;BMP280;29429;51.074;13.764;2024-01-06T01:08:57;98858.97;;;3.41
43802;BMP280;29429;51.074;13.764;2024-01-06T01:11:24;98865.59;;;3.37
43802;BMP280;29429;51.074;13.764;2024-01-06T01:13:51;98864.75;;;3.37
43802;BMP280;29429;51.074;13.764;2024-01-06T01:16:18;98860.88;;;3.33
43802;BMP280;29429;51.074;13.764;2024-01-06T01:18:45;98863.03;;;3.29
43802;BMP280;29429;51.074;13.764;2024-01-06T01:21:12;98862.41;;;3.27
43802;BMP280;29429;51.074;13.764;2024-01-06T01:23:39;98864.03;;;3.28
43802;BMP280;29429;51.074;13.764;2024-01-06T01:26:06;98855.41;;;3.20
43802;BMP280;29429;51.074;13.764;2024-01-06T01:28:33;98861.84;;;3.17
43802;BMP280;29429;51.074;13.764;2024-01-06T01:31:00;98861.19;;;3.15
43802;BMP280;29429;51.074;13.764;2024-01-06T01:33:27;98859.72;;;3.13
43802;BMP280;29429;51.074;13.764;2024-01-06T01:35:54;98860.91;;;3.10
43802;BMP280;29429;51.074;13.764;2024-01-06T01:38:21;98858.66;;;3.07
43802;BMP280;29429;51.074;13.764;2024-01-06T01:40:48;98863.09;;;3.06
43802;BMP280;29429;51.074;13.764;2024-01-06T01:43:21;98865.38;;;3.10
43802;BMP280;29429;51.074;13.764;2024-01-06T01:45:54;98866.19;;;3.10
43802;BMP280;29429;51.074;13.764;2024-01-06T01:48:23;98871.09;;;3.13
43802;BMP280;29429;51.074;13.764;2024-01-06T01:50:53;98864.22;;;3.12
43802;BMP280;29429;51.074;13.764;2024-01-06T01:53:23;98871.72;;;3.15
43802;BMP280;29429;51.074;13.764;2024-01-06T01:55:51;98867.63;;;3.13
43802;BMP280;29429;51.074;13.764;2024-01-06T01:58:19;98862.56;;;3.11
43802;BMP280;29429;51.074;13.764;2024-01-06T02:00:46;98862.75;;;3.10
43802;BMP280;29429;51.074;13.764;2024-01-06T02:03:13;98861.28;;;3.07
43802;BMP280;29429;51.074;13.764;2024-01-06T02:05:41;98862.81;;;3.01
43802;BMP280;29429;51.074;13.764;2024-01-06T02:08:08;98864.34;;;2.96
43802;BMP280;29429;51.074;13.764;2024-01-06T02:10:36;98870.59;;;2.95
43802;BMP280;29429;51.074;13.764;2024-01-06T02:13:12;98877.69;;;2.94
43802;BMP280;29429;51.074;13.764;2024-01-06T02:15:40;98876.84;;;2.94
43802;BMP280;29429;51.074;13.764;2024-01-06T02:18:07;98873.59;;;2.92
43802;BMP280;29429;51.074;13.764;2024-01-06T02:20:34;98868.88;;;2.87
43802;BMP280;29429;51.074;13.764;2024-01-06T02:23:02;98873.03;;;2.82
43802;BMP280;29429;51.074;13.764;2024-01-06T02:25:29;98858.94;;;2.75
43802;BMP280;29429;51.074;13.764;2024-01-06T02:27:56;98865.19;;;2.74
43802;BMP280;29429;51.074;13.764;2024-01-06T02:30:23;98856.66;;;2.72
43802;BMP280;29429;51.074;13.764;2024-01-06T02:32:51;98864.06;;;2.68
43802;BMP280;29429;51.074;13.764;2024-01-06T02:35:21;98865.25;;;2.66
43802;BMP280;29429;51.074;13.764;2024-01-06T02:37:48;98873.16;;;2.66
43802;BMP280;29429;51.074;13.764;2024-01-06T02:40:15;98871.34;;;2.66
43802;BMP280;29429;51.074;13.764;2024-01-06T02:42:42;98869.88;;;2.64
43802;BMP280;29429;51.074;13.764;2024-01-06T02:45:09;98876.78;;;2.65
43802;BMP280;29429;51.074;13.764;2024-01-06T02:47:36;98875.97;;;2.64
43802;BMP280;29429;51.074;13.764;2024-01-06T02:50:05;98883.03;;;2.64
43802;BMP280;29429;51.074;13.764;2024-01-06T02:52:32;98880.75;;;2.61
43802;BMP280;29429;51.074;13.764;2024-01-06T02:54:59;98886.84;;;2.61
43802;BMP280;29429;51.074;13.764;2024-01-06T02:57:30;98888.16;;;2.57
43802;BMP280;29429;51.074;13.764;2024-01-06T02:59:58;98887.72;;;2.54
43802;BMP280;29429;51.074;13.764;2024-01-06T03:02:25;98892.50;;;2.50
43802;BMP280;29429;51.074;13.764;2024-01-06T03:04:52;98893.38;;;2.42
43802;BMP280;29429;51.074;13.764;2024-01-06T03:07:19;98886.16;;;2.36
43802;BMP280;29429;51.074;13.764;2024-01-06T03:09:46;98890.31;;;2.31
43802;BMP280;29429;51.074;13.764;2024-01-06T03:12:13;98890.84;;;2.26
43802;BMP280;29429;51.074;13.764;2024-01-06T03:14:41;98903.00;;;2.27
43802;BMP280;29429;51.074;13.764;2024-01-06T03:17:07;98901.53;;;2.25
43802;BMP280;29429;51.074;13.764;2024-01-06T03:19:38;98908.91;;;2.29
43802;BMP280;29429;51.074;13.764;2024-01-06T03:22:06;98905.16;;;2.24
43802;BMP280;29429;51.074;13.764;2024-01-06T03:24:32;98903.50;;;2.23
43802;BMP280;29429;51.074;13.764;2024-01-06T03:26:59;98907.13;;;2.22
43802;BMP280;29429;51.074;13.764;2024-01-06T03:29:26;98902.38;;;2.17
43802;BMP280;29429;51.074;13.764;2024-01-06T03:31:53;98911.56;;;2.21
43802;BMP280;29429;51.074;13.764;2024-01-06T03:34:20;98902.72;;;2.22
43802;BMP280;29429;51.074;13.764;2024-01-06T03:36:47;98903.03;;;2.19
43802;BMP280;29429;51.074;13.764;2024-01-06T03:39:14;98918.34;;;2.16
43802;BMP280;29429;51.074;13.764;2024-01-06T03:41:41;98913.94;;;2.08
43802;BMP280;29429;51.074;13.764;2024-01-06T03:44:08;98913.59;;;2.11
43802;BMP280;29429;51.074;13.764;2024-01-06T03:46:36;98916.69;;;2.15
43802;BMP280;29429;51.074;13.764;2024-01-06T03:49:03;98908.97;;;2.13
43802;BMP280;29429;51.074;13.764;2024-01-06T03:51:30;98916.22;;;2.11
43802;BMP280;29429;51.074;13.764;2024-01-06T03:53:57;98914.91;;;2.07
43802;BMP280;29429;51.074;13.764;2024-01-06T03:56:24;98920.88;;;2.01
43802;BMP280;29429;51.074;13.764;2024-01-06T03:58:51;98922.19;;;1.97
43802;BMP280;29429;51.074;13.764;2024-01-06T04:01:18;98913.47;;;1.97
43802;BMP280;29429;51.074;13.764;2024-01-06T04:03:45;98914.31;;;1.97
43802;BMP280;29429;51.074;13.764;2024-01-06T04:06:12;98921.69;;;2.02
43802;BMP280;29429;51.074;13.764;2024-01-06T04:08:40;98910.72;;;1.98
43802;BMP280;29429;51.074;13.764;2024-01-06T04:11:08;98916.13;;;1.97
43802;BMP280;29429;51.074;13.764;2024-01-06T04:13:35;98922.22;;;1.89
43802;BMP280;29429;51.074;13.764;2024-01-06T04:16:02;98928.66;;;1.87
43802;BMP280;29429;51.074;13.764;2024-01-06T04:18:29;98928.97;;;1.83
43802;BMP280;29429;51.074;13.764;2024-01-06T04:20:56;98927.00;;;1.85
43802;BMP280;29429;51.074;13.764;2024-01-06T04:23:23;98917.31;;;1.86
43802;BMP280;29429;51.074;13.764;2024-01-06T04:25:52;98921.28;;;1.82
43802;BMP280;29429;51.074;13.764;2024-01-06T04:28:19;98919.13;;;1.77
43802;BMP280;29429;51.074;13.764;2024-01-06T04:30:46;98918.34;;;1.77
43802;BMP280;29429;51.074;13.764;2024-01-06T04:33:13;98922.25;;;1.81
43802;BMP280;29429;51.074;13.764;2024-01-06T04:35:41;98924.53;;;1.84
43802;BMP280;29429;51.074;13.764;2024-01-06T04:38:08;98919.94;;;1.86
43802;BMP280;29429;51.074;13.764;2024-01-06T04:40:36;98929.81;;;1.84
43802;BMP280;29429;51.074;13.764;2024-01-06T04:43:03;98927.38;;;1.82
43802;BMP280;29429;51.074;13.764;2024-01-06T04:45:30;98926.34;;;1.83
43802;BMP280;29429;51.074;13.764;2024-01-06T04:47:57;98929.97;;;1.82
43802;BMP280;29429;51.074;13.764;2024-01-06T04:50:24;98929.13;;;1.90
43802;BMP280;29429;51.074;13.764;2024-01-06T04:52:51;98932.91;;;1.96
43802;BMP280;29429;51.074;13.764;2024-01-06T04:55:18;98933.84;;;2.03
43802;BMP280;29429;51.074;13.764;2024-01-06T04:57:45;98941.41;;;2.06
43802;BMP280;29429;51.074;13.764;2024-01-06T05:00:12;98938.59;;;2.07
43802;BMP280;29429;51.074;13.764;2024-01-06T05:02:39;98930.03;;;2.13
43802;BMP280;29429;51.074;13.764;2024-01-06T05:05:07;98937.03;;;2.21
43802;BMP280;29429;51.074;13.764;2024-01-06T05:07:34;98942.16;;;2.22
43802;BMP280;29429;51.074;13.764;2024-01-06T05:10:00;98941.31;;;2.22
43802;BMP280;29429;51.074;13.764;2024-01-06T05:12:27;98949.22;;;2.22
43802;BMP280;29429;51.074;13.764;2024-01-06T05:14:54;98948.38;;;2.21
43802;BMP280;29429;51.074;13.764;2024-01-06T05:17:21;98950.50;;;2.26
43802;BMP280;29429;51.074;13.764;2024-01-06T05:19:48;98949.81;;;2.32
43802;BMP280;29429;51.074;13.764;2024-01-06T05:22:15;98958.19;;;2.35
43802;BMP280;29429;51.074;13.764;2024-01-06T05:24:42;98955.34;;;2.45
43802;BMP280;29429;51.074;13.764;2024-01-06T05:27:09;98955.09;;;2.55
43802;BMP280;29429;51.074;13.764;2024-01-06T05:29:40;98952.09;;;2.66
43802;BMP280;29429;51.074;13.764;2024-01-06T05:32:06;98947.59;;;2.74
43802;BMP280;29429;51.074;13.764;2024-01-06T05:34:33;98959.06;;;2.81
43802;BMP280;29429;51.074;13.764;2024-01-06T05:37:01;98965.38;;;2.72
43802;BMP280;29429;51.074;13.764;2024-01-06T05:39:28;98962.28;;;2.69
43802;BMP280;29429;51.074;13.764;2024-01-06T05:41:55;98962.84;;;2.79
43802;BMP280;29429;51.074;13.764;2024-01-06T05:44:22;98972.00;;;2.91
43802;BMP280;29429;51.074;13.764;2024-01-06T05:46:50;98971.56;;;3.02
43802;BMP280;29429;51.074;13.764;2024-01-06T05:49:17;98964.28;;;3.12
43802;BMP280;29429;51.074;13.764;2024-01-06T05:51:46;98969.41;;;3.05
43802;BMP280;29429;51.074;13.764;2024-01-06T05:54:13;98979.13;;;3.05
43802;BMP280;29429;51.074;13.764;2024-01-06T05:56:40;98985.78;;;3.16
43802;BMP280;29429;51.074;13.764;2024-01-06T05:59:07;98984.75;;;3.25
43802;BMP280;29429;51.074;13.764;2024-01-06T06:01:34;98986.84;;;3.29
43802;BMP280;29429;51.074;13.764;2024-01-06T06:04:01;98995.16;;;3.41
43802;BMP280;29429;51.074;13.764;2024-01-06T06:06:28;98993.91;;;3.51
43802;BMP280;29429;51.074;13.764;2024-01-06T06:08:55;98998.28;;;3.59
43802;BMP280;29429;51.074;13.764;2024-01-06T06:11:22;98997.94;;;3.62
43802;BMP280;29429;51.074;13.764;2024-01-06T06:13:49;99010.75;;;3.65
43802;BMP280;29429;51.074;13.764;2024-01-06T06:16:16;99009.59;;;3.67
43802;BMP280;29429;51.074;13.764;2024-01-06T06:18:43;99011.03;;;3.70
43802;BMP280;29429;51.074;13.764;2024-01-06T06:21:10;99017.22;;;3.77
43802;BMP280;29429;51.074;13.764;2024-01-06T06:23:37;99023.78;;;3.81
43802;BMP280;29429;51.074;13.764;2024-01-06T06:26:06;99021.44;;;3.86
43802;BMP280;29429;51.074;13.764;2024-01-06T06:28:34;99025.97;;;3.92
43802;BMP280;29429;51.074;13.764;2024-01-06T06:31:02;99030.25;;;3.93
43802;BMP280;29429;51.074;13.764;2024-01-06T06:33:29;99030.06;;;3.95
43802;BMP280;29429;51.074;13.764;2024-01-06T06:35:57;99029.69;;;3.98
43802;BMP280;29429;51.074;13.764;2024-01-06T06:38:25;99031.97;;;4.01
43802;BMP280;29429;51.074;13.764;2024-01-06T06:40:53;99026.91;;;3.99
43802;BMP280;29429;51.074;13.764;2024-01-06T06:43:20;99038.56;;;4.05
43802;BMP280;29429;51.074;13.764;2024-01-06T06:45:47;99046.06;;;4.08
43802;BMP280;29429;51.074;13.764;2024-01-06T06:48:14;99044.72;;;4.12
43802;BMP280;29429;51.074;13.764;2024-01-06T06:50:41;99050.84;;;4.12
43802;BMP280;29429;51.074;13.764;2024-01-06T06:53:08;99053.91;;;4.16
43802;BMP280;29429;51.074;13.764;2024-01-06T06:55:35;99062.47;;;4.18
43802;BMP280;29429;51.074;13.764;2024-01-06T06:58:04;99070.66;;;4.23
43802;BMP280;29429;51.074;13.764;2024-01-06T07:00:32;99065.03;;;4.26
43802;BMP280;29429;51.074;13.764;2024-01-06T07:03:00;99062.00;;;4.29
43802;BMP280;29429;51.074;13.764;2024-01-06T07:05:27;99069.22;;;4.35
43802;BMP280;29429;51.074;13.764;2024-01-06T07:07:54;99076.56;;;4.40
43802;BMP280;29429;51.074;13.764;2024-01-06T07:10:22;99077.03;;;4.43
43802;BMP280;29429;51.074;13.764;2024-01-06T07:12:49;99075.03;;;4.45
43802;BMP280;29429;51.074;13.764;2024-01-06T07:15:16;99084.03;;;4.51
43802;BMP280;29429;51.074;13.764;2024-01-06T07:17:43;99089.31;;;4.51
43802;BMP280;29429;51.074;13.764;2024-01-06T07:20:10;99097.50;;;4.56
43802;BMP280;29429;51.074;13.764;2024-01-06T07:22:37;99093.88;;;4.57
43802;BMP280;29429;51.074;13.764;2024-01-06T07:25:05;99097.34;;;4.57
43802;BMP280;29429;51.074;13.764;2024-01-06T07:27:33;99096.78;;;4.62
43802;BMP280;29429;51.074;13.764;2024-01-06T07:30:00;99100.88;;;4.64
43802;BMP280;29429;51.074;13.764;2024-01-06T07:32:27;99106.63;;;4.68
43802;BMP280;29429;51.074;13.764;2024-01-06T07:34:54;99107.25;;;4.70
43802;BMP280;29429;51.074;13.764;2024-01-06T07:37:21;99110.53;;;4.72
43802;BMP280;29429;51.074;13.764;2024-01-06T07:39:48;99122.53;;;4.74
43802;BMP280;29429;51.074;13.764;2024-01-06T07:42:16;99119.28;;;4.72
43802;BMP280;29429;51.074;13.764;2024-01-06T07:44:43;99122.53;;;4.74
43802;BMP280;29429;51.074;13.764;2024-01-06T07:47:11;99114.25;;;4.77
43802;BMP280;29429;51.074;13.764;2024-01-06T07:49:38;99113.69;;;4.82
43802;BMP280;29429;51.074;13.764;2024-01-06T07:52:05;99118.63;;;4.85
43802;BMP280;29429;51.074;13.764;2024-01-06T07:54:32;99112.16;;;4.87
43802;BMP280;29429;51.074;13.764;2024-01-06T07:56:59;99122.34;;;4.90
43802;BMP280;29429;51.074;13.764;2024-01-06T07:59:26;99125.91;;;4.98
43802;BMP280;29429;51.074;13.764;2024-01-06T08:01:53;99119.59;;;4.99
43802;BMP280;29429;51.074;13.764;2024-01-06T08:04:20;99123.28;;;4.98
43802;BMP280;29429;51.074;13.764;2024-01-06T08:06:47;99130.53;;;4.96
43802;BMP280;29429;51.074;13.764;2024-01-06T08:09:14;99125.72;;;4.99
43802;BMP280;29429;51.074;13.764;2024-01-06T08:11:41;99138.81;;;5.07
43802;BMP280;29429;51.074;13.764;2024-01-06T08:14:10;99136.09;;;5.15
43802;BMP280;29429;51.074;13.764;2024-01-06T08:16:37;99141.44;;;5.22
43802;BMP280;29429;51.074;13.764;2024-01-06T08:19:04;99141.06;;;5.25
43802;BMP280;29429;51.074;13.764;2024-01-06T08:21:31;99145.81;;;5.29
43802;BMP280;29429;51.074;13.764;2024-01-06T08:23:59;99144.22;;;5.35
43802;BMP280;29429;51.074;13.764;2024-01-06T08:26:26;99147.41;;;5.45
43802;BMP280;29429;51.074;13.764;2024-01-06T08:28:53;99156.22;;;5.52
43802;BMP280;29429;51.074;13.764;2024-01-06T08:31:20;99156.09;;;5.60
43802;BMP280;29429;51.074;13.764;2024-01-06T08:33:49;99160.28;;;5.69
43802;BMP280;29429;51.074;13.764;2024-01-06T08:36:16;99157.69;;;5.76
43802;BMP280;29429;51.074;13.764;2024-01-06T08:38:43;99164.44;;;5.78
43802;BMP280;29429;51.074;13.764;2024-01-06T08:41:10;99165.34;;;5.85
43802;BMP280;29429;51.074;13.764;2024-01-06T08:43:37;99159.28;;;5.91
43802;BMP280;29429;51.074;13.764;2024-01-06T08:46:04;99170.75;;;5.98
43802;BMP280;29429;51.074;13.764;2024-01-06T08:48:32;99171.66;;;6.05
43802;BMP280;29429;51.074;13.764;2024-01-06T08:51:02;99175.66;;;6.01
43802;BMP280;29429;51.074;13.764;2024-01-06T08:53:29;99172.66;;;6.04
43802;BMP280;29429;51.074;13.764;2024-01-06T08:55:56;99175.16;;;6.12
43802;BMP280;29429;51.074;13.764;2024-01-06T08:58:23;99177.06;;;6.19
43802;BMP280;29429;51.074;13.764;2024-01-06T09:00:50;99185.25;;;6.24
43802;BMP280;29429;51.074;13.764;2024-01-06T09:03:17;99190.16;;;6.27
43802;BMP280;29429;51.074;13.764;2024-01-06T09:05:45;99194.28;;;6.36
43802;BMP280;29429;51.074;13.764;2024-01-06T09:08:12;99186.78;;;6.39
43802;BMP280;29429;51.074;13.764;2024-01-06T09:10:39;99196.81;;;6.44
43802;BMP280;29429;51.074;13.764;2024-01-06T09:13:05;99193.59;;;6.48
43802;BMP280;29429;51.074;13.764;2024-01-06T09:15:32;99195.91;;;6.58
43802;BMP280;29429;51.074;13.764;2024-01-06T09:17:59;99207.94;;;6.60
43802;BMP280;29429;51.074;13.764;2024-01-06T09:20:27;99197.34;;;6.60
43802;BMP280;29429;51.074;13.764;2024-01-06T09:22:54;99203.09;;;6.64
43802;BMP280;29429;51.074;13.764;2024-01-06T09:25:21;99207.19;;;6.66
43802;BMP280;29429;51.074;13.764;2024-01-06T09:27:51;99208.00;;;6.67
43802;BMP280;29429;51.074;13.764;2024-01-06T09:30:20;99213.78;;;6.77
43802;BMP280;29429;51.074;13.764;2024-01-06T09:32:47;99210.75;;;6.80
43802;BMP280;29429;51.074;13.764;2024-01-06T09:35:14;99216.06;;;6.87
43802;BMP280;29429;51.074;13.764;2024-01-06T09:37:41;99212.44;;;6.94
43802;BMP280;29429;51.074;13.764;2024-01-06T09:40:12;99209.63;;;7.02
43802;BMP280;29429;51.074;13.764;2024-01-06T09:42:42;99215.56;;;7.04
43802;BMP280;29429;51.074;13.764;2024-01-06T09:45:09;99215.16;;;7.07
43802;BMP280;29429;51.074;13.764;2024-01-06T09:47:40;99206.84;;;7.10
43802;BMP280;29429;51.074;13.764;2024-01-06T09:50:09;99211.13;;;7.11
43802;BMP280;29429;51.074;13.764;2024-01-06T09:52:40;99213.56;;;7.13
43802;BMP280;29429;51.074;13.764;2024-01-06T09:55:12;99213.41;;;7.14
43802;BMP280;29429;51.074;13.764;2024-01-06T09:57:39;99207.44;;;7.12
43802;BMP280;29429;51.074;13.764;2024-01-06T10:00:07;99214.94;;;7.02
43802;BMP280;29429;51.074;13.764;2024-01-06T10:02:38;99215.09;;;6.94
43802;BMP280;29429;51.074;13.764;2024-01-06T10:05:05;99210.59;;;6.88
43802;BMP280;29429;51.074;13.764;2024-01-06T10:07:33;99216.91;;;6.87
43802;BMP280;29429;51.074;13.764;2024-01-06T10:10:00;99212.03;;;6.91
43802;BMP280;29429;51.074;13.764;2024-01-06T10:12:27;99207.28;;;6.86
43802;BMP280;29429;51.074;13.764;2024-01-06T10:14:58;99210.75;;;6.80
43802;BMP280;29429;51.074;13.764;2024-01-06T10:17:25;99207.44;;;6.78
43802;BMP280;29429;51.074;13.764;2024-01-06T10:19:52;99209.31;;;6.78
43802;BMP280;29429;51.074;13.764;2024-01-06T10:22:21;99219.69;;;6.79
43802;BMP280;29429;51.074;13.764;2024-01-06T10:24:48;99215.22;;;6.80
43802;BMP280;29429;51.074;13.764;2024-01-06T10:27:16;99209.31;;;6.84
43802;BMP280;29429;51.074;13.764;2024-01-06T10:29:44;99200.16;;;6.87
43802;BMP280;29429;51.074;13.764;2024-01-06T10:32:12;99205.91;;;6.90
43802;BMP280;29429;51.074;13.764;2024-01-06T10:34:39;99207.34;;;6.93
43802;BMP280;29429;51.074;13.764;2024-01-06T10:37:06;99210.06;;;7.06
43802;BMP280;29429;51.074;13.764;2024-01-06T10:39:33;99201.75;;;7.15
43802;BMP280;29429;51.074;13.764;2024-01-06T10:42:06;99198.56;;;7.26
43802;BMP280;29429;51.074;13.764;2024-01-06T10:44:34;99204.09;;;7.31
43802;BMP280;29429;51.074;13.764;2024-01-06T10:47:02;99194.13;;;7.40
43802;BMP280;29429;51.074;13.764;2024-01-06T10:49:30;99192.53;;;7.46
43802;BMP280;29429;51.074;13.764;2024-01-06T10:51:59;99191.31;;;7.55
43802;BMP280;29429;51.074;13.764;2024-01-06T10:54:27;99198.88;;;7.58
43802;BMP280;29429;51.074;13.764;2024-01-06T10:56:57;99198.06;;;7.57
43802;BMP280;29429;51.074;13.764;2024-01-06T10:59:28;99203.63;;;7.62
43802;BMP280;29429;51.074;13.764;2024-01-06T11:01:58;99190.56;;;7.67
43802;BMP280;29429;51.074;13.764;2024-01-06T11:04:25;99193.81;;;7.69
43802;BMP280;29429;51.074;13.764;2024-01-06T11:06:53;99195.47;;;7.77
43802;BMP280;29429;51.074;13.764;2024-01-06T11:09:27;99203.47;;;7.83
43802;BMP280;29429;51.074;13.764;2024-01-06T11:11:58;99197.97;;;7.91
43802;BMP280;29429;51.074;13.764;2024-01-06T11:14:27;99201.88;;;8.02
43802;BMP280;29429;51.074;13.764;2024-01-06T11:16:59;99207.19;;;8.02
43802;BMP280;29429;51.074;13.764;2024-01-06T11:22:27;99210.84;;;8.08
43802;BMP280;29429;51.074;13.764;2024-01-06T11:25:03;99210.66;;;8.09
43802;BMP280;29429;51.074;13.764;2024-01-06T11:27:31;99209.84;;;8.09
43802;BMP280;29429;51.074;13.764;2024-01-06T11:30:02;99218.84;;;8.14
43802;BMP280;29429;51.074;13.764;2024-01-06T11:32:36;99203.31;;;8.24
43802;BMP280;29429;51.074;13.764;2024-01-06T11:35:14;99210.91;;;8.40
43802;BMP280;29429;51.074;13.764;2024-01-06T11:45:38;99214.81;;;8.57
43802;BMP280;29429;51.074;13.764;2024-01-06T11:48:13;99210.94;;;8.60
43802;BMP280;29429;51.074;13.764;2024-01-06T11:50:43;99211.72;;;8.61
43802;BMP280;29429;51.074;13.764;2024-01-06T11:53:12;99200.91;;;8.55
43802;BMP280;29429;51.074;13.764;2024-01-06T11:55:40;99217.06;;;8.54
43802;BMP280;29429;51.074;13.764;2024-01-06T11:58:10;99207.44;;;8.46
43802;BMP280;29429;51.074;13.764;2024-01-06T12:00:38;99205.00;;;8.45
43802;BMP280;29429;51.074;13.764;2024-01-06T12:03:11;99213.97;;;8.37
43802;BMP280;29429;51.074;13.764;2024-01-06T12:05:38;99201.25;;;8.26
43802;BMP280;29429;51.074;13.764;2024-01-06T12:08:06;99207.81;;;8.24
43802;BMP280;29429;51.074;13.764;2024-01-06T12:10:35;99192.69;;;8.24
43802;BMP280;29429;51.074;13.764;2024-01-06T12:13:07;99207.22;;;8.35
43802;BMP280;29429;51.074;13.764;2024-01-06T12:15:40;99208.06;;;8.35
43802;BMP280;29429;51.074;13.764;2024-01-06T12:18:08;99209.06;;;8.34
43802;BMP280;29429;51.074;13.764;2024-01-06T12:20:37;99218.69;;;8.35
43802;BMP280;29429;51.074;13.764;2024-01-06T12:23:04;99225.22;;;8.39
43802;BMP280;29429;51.074;13.764;2024-01-06T12:25:35;99227.69;;;8.41
43802;BMP280;29429;51.074;13.764;2024-01-06T12:28:07;99222.16;;;8.42
43802;BMP280;29429;51.074;13.764;2024-01-06T12:30:34;99234.03;;;8.46
43802;BMP280;29429;51.074;13.764;2024-01-06T12:33:03;99225.84;;;8.41
43802;BMP280;29429;51.074;13.764;2024-01-06T12:35:30;99226.03;;;8.33
43802;BMP280;29429;51.074;13.764;2024-01-06T12:37:57;99231.09;;;8.22
43802;BMP280;29429;51.074;13.764;2024-01-06T12:40:25;99232.91;;;8.08
43802;BMP280;29429;51.074;13.764;2024-01-06T12:42:53;99236.97;;;7.97
43802;BMP280;29429;51.074;13.764;2024-01-06T12:45:20;99233.47;;;7.84
43802;BMP280;29429;51.074;13.764;2024-01-06T12:47:47;99234.66;;;7.75
43802;BMP280;29429;51.074;13.764;2024-01-06T12:50:14;99235.44;;;7.62
43802;BMP280;29429;51.074;13.764;2024-01-06T12:52:41;99233.16;;;7.53
43802;BMP280;29429;51.074;13.764;2024-01-06T12:55:08;99231.06;;;7.42
43802;BMP280;29429;51.074;13.764;2024-01-06T12:57:35;99231.63;;;7.30
43802;BMP280;29429;51.074;13.764;2024-01-06T13:00:03;99235.28;;;7.29
43802;BMP280;29429;51.074;13.764;2024-01-06T13:02:32;99239.16;;;7.27
43802;BMP280;29429;51.074;13.764;2024-01-06T13:05:00;99243.41;;;7.21
43802;BMP280;29429;51.074;13.764;2024-01-06T13:07:28;99250.75;;;7.19
43802;BMP280;29429;51.074;13.764;2024-01-06T13:09:56;99239.69;;;7.09
43802;BMP280;29429;51.074;13.764;2024-01-06T13:12:24;99247.47;;;7.17
43802;BMP280;29429;51.074;13.764;2024-01-06T13:15:06;99254.63;;;7.23
43802;BMP280;29429;51.074;13.764;2024-01-06T13:17:38;99236.00;;;7.10
43802;BMP280;29429;51.074;13.764;2024-01-06T13:20:06;99252.94;;;7.09
43802;BMP280;29429;51.074;13.764;2024-01-06T13:22:34;99270.28;;;7.12
43802;BMP280;29429;51.074;13.764;2024-01-06T13:25:01;99268.63;;;7.11
43802;BMP280;29429;51.074;13.764;2024-01-06T13:27:28;99275.16;;;7.08
43802;BMP280;29429;51.074;13.764;2024-01-06T13:29:55;99273.09;;;7.04
43802;BMP280;29429;51.074;13.764;2024-01-06T13:32:22;99274.66;;;6.98
43802;BMP280;29429;51.074;13.764;2024-01-06T13:34:50;99293.00;;;6.93
43802;BMP280;29429;51.074;13.764;2024-01-06T13:37:21;99288.44;;;6.87
43802;BMP280;29429;51.074;13.764;2024-01-06T13:39:51;99277.16;;;6.79
43802;BMP280;29429;51.074;13.764;2024-01-06T13:42:18;99295.41;;;6.88
43802;BMP280;29429;51.074;13.764;2024-01-06T13:44:48;99288.44;;;6.87
43802;BMP280;29429;51.074;13.764;2024-01-06T13:47:15;99293.13;;;6.85
43802;BMP280;29429;51.074;13.764;2024-01-06T13:49:42;99298.22;;;6.87
43802;BMP280;29429;51.074;13.764;2024-01-06T13:52:10;99298.97;;;6.81
43802;BMP280;29429;51.074;13.764;2024-01-06T13:54:37;99300.19;;;6.78
43802;BMP280;29429;51.074;13.764;2024-01-06T13:57:04;99298.72;;;6.75
43802;BMP280;29429;51.074;13.764;2024-01-06T13:59:31;99300.59;;;6.75
43802;BMP280;29429;51.074;13.764;2024-01-06T14:01:58;99302.19;;;6.69
43802;BMP280;29429;51.074;13.764;2024-01-06T14:04:25;99305.38;;;6.65
43802;BMP280;29429;51.074;13.764;2024-01-06T14:06:52;99310.19;;;6.55
43802;BMP280;29429;51.074;13.764;2024-01-06T14:09:22;99304.63;;;6.50
43802;BMP280;29429;51.074;13.764;2024-01-06T14:11:49;99317.41;;;6.46
43802;BMP280;29429;51.074;13.764;2024-01-06T14:14:16;99313.28;;;6.37
43802;BMP280;29429;51.074;13.764;2024-01-06T14:16:43;99309.81;;;6.37
43802;BMP280;29429;51.074;13.764;2024-01-06T14:19:10;99317.53;;;6.38
43802;BMP280;29429;51.074;13.764;2024-01-06T14:21:37;99316.34;;;6.41